createdAt,value
2023-05-09T00:00:48.599Z,98871.16
2023-05-09T00:01:50.574Z,98864.94
2023-05-09T00:02:54.323Z,98867.91
2023-05-09T00:03:56.465Z,98867.66
2023-05-09T00:04:58.360Z,98857.91
2023-05-09T00:06:00.551Z,98861.72
2023-05-09T00:07:02.668Z,98870.91
2023-05-09T00:08:05.357Z,98866.31
2023-05-09T00:09:07.281Z,98866.31
2023-05-09T00:10:09.575Z,98870.13
2023-05-09T00:11:11.603Z,98861.19
2023-05-09T00:12:13.593Z,98863.09
2023-05-09T00:13:15.449Z,98866.91
2023-05-09T00:14:18.728Z,98872.31
2023-05-09T00:15:20.668Z,98871.00
2023-05-09T00:16:24.270Z,98864.19
2023-05-09T00:17:26.840Z,98864.19
2023-05-09T00:18:31.204Z,98858.78
2023-05-09T00:19:33.752Z,98863.41
2023-05-09T00:20:36.146Z,98860.97
2023-05-09T00:21:38.050Z,98862.88
2023-05-09T00:22:41.099Z,98860.97
2023-05-09T00:23:43.261Z,98862.09
2023-05-09T00:24:45.234Z,98859.38
2023-05-09T00:25:47.049Z,98855.06
2023-05-09T00:26:49.038Z,98858.88
2023-05-09T00:27:50.999Z,98858.88
2023-05-09T00:28:53.110Z,98856.41
2023-05-09T00:29:55.148Z,98852.63
2023-05-09T00:30:57.401Z,98854.53
2023-05-09T00:31:59.324Z,98862.09
2023-05-09T00:33:01.345Z,98850.47
2023-05-09T00:34:03.293Z,98855.88
2023-05-09T00:35:05.872Z,98851.28
2023-05-09T00:36:08.068Z,98851.56
2023-05-09T00:37:10.136Z,98848.88
2023-05-09T00:38:12.964Z,98853.19
2023-05-09T00:39:14.798Z,98851.56
2023-05-09T00:40:16.695Z,98841.56
2023-05-09T00:41:18.534Z,98845.38
2023-05-09T00:42:20.432Z,98847.28
2023-05-09T00:43:22.382Z,98844.56
2023-05-09T00:44:24.673Z,98846.75
2023-05-09T00:45:26.844Z,98844.06
2023-05-09T00:46:28.957Z,98843.25
2023-05-09T00:47:31.228Z,98843.25
2023-05-09T00:48:33.093Z,98836.53
2023-05-09T00:49:35.389Z,98830.03
2023-05-09T00:50:37.795Z,98842.75
2023-05-09T00:51:41.625Z,98836.25
2023-05-09T00:52:44.056Z,98825.97
2023-05-09T00:53:46.599Z,98823.81
2023-05-09T00:54:50.047Z,98821.38
2023-05-09T00:55:52.616Z,98820.88
2023-05-09T00:56:54.547Z,98817.06
2023-05-09T00:57:56.495Z,98816.25
2023-05-09T00:58:58.946Z,98813.56
2023-05-09T01:00:01.891Z,98815.75
2023-05-09T01:01:04.652Z,98813.06
2023-05-09T01:02:06.574Z,98813.84
2023-05-09T01:03:09.201Z,98811.44
2023-05-09T01:04:14.000Z,98812.53
2023-05-09T01:05:16.548Z,98807.94
2023-05-09T01:06:30.123Z,98811.44
2023-05-09T01:08:13.365Z,98810.84
2023-05-09T01:09:42.742Z,98809.03
2023-05-09T01:11:34.402Z,98802.25
2023-05-09T01:12:51.361Z,98800.41
2023-05-09T01:14:14.669Z,98805.03
2023-05-09T01:15:31.499Z,98803.69
2023-05-09T01:16:46.026Z,98793.97
2023-05-09T01:17:59.841Z,98799.38
2023-05-09T01:19:14.709Z,98796.16
2023-05-09T01:20:22.619Z,98798.06
2023-05-09T01:21:29.345Z,98798.06
2023-05-09T01:22:36.714Z,98804.06
2023-05-09T01:23:44.346Z,98797.56
2023-05-09T01:25:14.425Z,98798.34
2023-05-09T01:27:26.803Z,98798.56
2023-05-09T01:28:44.693Z,98794.84
2023-05-09T01:29:51.647Z,98794.91
2023-05-09T01:30:55.613Z,98799.00
2023-05-09T01:32:00.052Z,98793.28
2023-05-09T01:33:08.782Z,98794.09
2023-05-09T01:34:15.304Z,98795.19
2023-05-09T01:35:20.070Z,98797.09
2023-05-09T01:36:23.367Z,98795.78
2023-05-09T01:37:39.653Z,98790.59
2023-05-09T01:38:44.654Z,98791.69
2023-05-09T01:39:50.449Z,98786.28
2023-05-09T01:40:55.448Z,98788.97
2023-05-09T01:42:02.393Z,98796.28
2023-05-09T01:43:09.960Z,98796.28
2023-05-09T01:44:15.344Z,98790.66
2023-05-09T01:45:19.994Z,98786.88
2023-05-09T01:46:22.947Z,98786.88
2023-05-09T01:47:27.053Z,98784.16
2023-05-09T01:48:31.800Z,98787.66
2023-05-09T01:49:37.723Z,98785.78
2023-05-09T01:50:43.527Z,98778.25
2023-05-09T01:51:47.954Z,98778.25
2023-05-09T01:52:55.012Z,98781.47
2023-05-09T01:53:58.998Z,98778.25
2023-05-09T01:55:02.479Z,98773.66
2023-05-09T01:56:07.861Z,98776.34
2023-05-09T01:57:12.012Z,98774.75
2023-05-09T01:58:15.936Z,98774.75
2023-05-09T01:59:19.735Z,98769.63
2023-05-09T02:00:24.020Z,98775.03
2023-05-09T02:01:26.838Z,98777.75
2023-05-09T02:02:29.501Z,98779.66
2023-05-09T02:03:34.090Z,98770.72
2023-05-09T02:04:37.130Z,98777.19
2023-05-09T02:05:40.316Z,98780.72
2023-05-09T02:06:45.025Z,98778.00
2023-05-09T02:07:48.849Z,98783.41
2023-05-09T02:08:51.660Z,98777.50
2023-05-09T02:09:58.203Z,98786.94
2023-05-09T02:11:00.323Z,98782.91
2023-05-09T02:12:04.457Z,98777.78
2023-05-09T02:13:07.479Z,98782.91
2023-05-09T02:14:09.974Z,98781.81
2023-05-09T02:15:12.287Z,98777.50
2023-05-09T02:16:15.404Z,98781.59
2023-05-09T02:17:17.904Z,98780.50
2023-05-09T02:18:19.771Z,98778.59
2023-05-09T02:19:21.654Z,98777.28
2023-05-09T02:20:23.786Z,98777.28
2023-05-09T02:21:26.781Z,98777.00
2023-05-09T02:22:30.493Z,98782.41
2023-05-09T02:23:32.437Z,98784.28
2023-05-09T02:24:34.512Z,98775.69
2023-05-09T02:25:38.564Z,98776.78
2023-05-09T02:26:41.490Z,98775.97
2023-05-09T02:27:47.466Z,98785.38
2023-05-09T02:28:50.937Z,98781.38
2023-05-09T02:29:57.635Z,98782.69
2023-05-09T02:31:06.445Z,98779.47
2023-05-09T02:32:12.587Z,98774.38
2023-05-09T02:33:14.628Z,98772.47
2023-05-09T02:34:17.720Z,98775.47
2023-05-09T02:35:21.865Z,98773.56
2023-05-09T02:36:24.496Z,98779.22
2023-05-09T02:37:27.840Z,98778.16
2023-05-09T02:38:29.665Z,98775.47
2023-05-09T02:39:32.374Z,98770.31
2023-05-09T02:40:34.657Z,98774.91
2023-05-09T02:41:36.765Z,98768.41
2023-05-09T02:42:38.741Z,98766.53
2023-05-09T02:43:40.674Z,98759.50
2023-05-09T02:44:42.549Z,98756.00
2023-05-09T02:45:44.690Z,98756.31
2023-05-09T02:46:46.662Z,98752.50
2023-05-09T02:47:48.596Z,98757.91
2023-05-09T02:48:51.407Z,98751.69
2023-05-09T02:49:53.240Z,98749.28
2023-05-09T02:50:55.207Z,98750.91
2023-05-09T02:51:57.215Z,98753.06
2023-05-09T02:52:59.146Z,98746.59
2023-05-09T02:54:00.893Z,98748.75
2023-05-09T02:55:04.127Z,98747.94
2023-05-09T02:56:06.121Z,98747.66
2023-05-09T02:57:08.044Z,98748.75
2023-05-09T02:58:14.723Z,98749.03
2023-05-09T02:59:19.972Z,98751.44
2023-05-09T03:00:22.282Z,98749.56
2023-05-09T03:01:24.223Z,98756.06
2023-05-09T03:02:26.244Z,98752.56
2023-05-09T03:03:28.303Z,98754.44
2023-05-09T03:04:30.468Z,98752.84
2023-05-09T03:05:32.349Z,98746.63
2023-05-09T03:06:34.269Z,98749.34
2023-05-09T03:07:36.201Z,98745.03
2023-05-09T03:08:38.099Z,98748.53
2023-05-09T03:09:41.188Z,98747.72
2023-05-09T03:10:43.246Z,98743.41
2023-05-09T03:11:45.082Z,98754.75
2023-05-09T03:12:47.773Z,98752.31
2023-05-09T03:13:49.731Z,98753.41
2023-05-09T03:14:51.610Z,98750.69
2023-05-09T03:15:53.588Z,98746.38
2023-05-09T03:16:55.766Z,98746.69
2023-05-09T03:17:58.021Z,98748.28
2023-05-09T03:18:59.963Z,98751.78
2023-05-09T03:20:04.304Z,98754.50
2023-05-09T03:21:06.554Z,98752.38
2023-05-09T03:22:08.549Z,98757.19
2023-05-09T03:23:10.600Z,98755.59
2023-05-09T03:24:12.503Z,98752.09
2023-05-09T03:25:14.972Z,98741.56
2023-05-09T03:26:16.970Z,98748.06
2023-05-09T03:27:20.034Z,98748.88
2023-05-09T03:28:21.957Z,98744.56
2023-05-09T03:29:23.986Z,98742.16
2023-05-09T03:30:27.387Z,98742.38
2023-05-09T03:31:29.358Z,98745.38
2023-05-09T03:32:31.371Z,98741.34
2023-05-09T03:33:33.209Z,98740.56
2023-05-09T03:34:35.582Z,98735.94
2023-05-09T03:35:37.452Z,98739.16
2023-05-09T03:36:39.359Z,98734.34
2023-05-09T03:37:41.272Z,98735.94
2023-05-09T03:38:43.564Z,98739.75
2023-05-09T03:39:45.506Z,98742.44
2023-05-09T03:40:47.496Z,98727.84
2023-05-09T03:41:49.460Z,98733.81
2023-05-09T03:42:51.295Z,98731.91
2023-05-09T03:43:53.186Z,98736.50
2023-05-09T03:44:55.314Z,98734.91
2023-05-09T03:45:57.209Z,98734.09
2023-05-09T03:46:59.229Z,98739.50
2023-05-09T03:48:01.235Z,98734.38
2023-05-09T03:49:04.415Z,98734.09
2023-05-09T03:50:07.415Z,98730.88
2023-05-09T03:51:09.363Z,98732.50
2023-05-09T03:52:11.227Z,98731.69
2023-05-09T03:53:13.175Z,98730.59
2023-05-09T03:54:15.330Z,98728.19
2023-05-09T03:55:17.198Z,98726.59
2023-05-09T03:56:19.164Z,98725.47
2023-05-09T03:57:21.284Z,98734.16
2023-05-09T03:58:23.128Z,98734.97
2023-05-09T03:59:25.315Z,98737.69
2023-05-09T04:00:27.325Z,98735.78
2023-05-09T04:01:29.247Z,98733.88
2023-05-09T04:02:31.614Z,98737.69
2023-05-09T04:03:33.864Z,98745.25
2023-05-09T04:04:36.080Z,98737.97
2023-05-09T04:05:38.196Z,98736.88
2023-05-09T04:06:40.154Z,98741.75
2023-05-09T04:07:42.661Z,98739.88
2023-05-09T04:08:45.399Z,98739.88
2023-05-09T04:09:47.454Z,98738.25
2023-05-09T04:10:50.946Z,98736.63
2023-05-09T04:11:52.866Z,98738.25
2023-05-09T04:12:55.034Z,98729.34
2023-05-09T04:13:57.052Z,98735.56
2023-05-09T04:14:58.992Z,98735.56
2023-05-09T04:16:01.598Z,98731.22
2023-05-09T04:17:03.706Z,98724.22
2023-05-09T04:18:06.270Z,98729.63
2023-05-09T04:19:08.275Z,98726.13
2023-05-09T04:20:11.649Z,98720.72
2023-05-09T04:21:13.631Z,98728.00
2023-05-09T04:22:15.508Z,98726.91
2023-05-09T04:23:17.382Z,98720.72
2023-05-09T04:24:19.531Z,98727.22
2023-05-09T04:25:21.420Z,98729.41
2023-05-09T04:26:24.770Z,98719.41
2023-05-09T04:27:28.294Z,98731.00
2023-05-09T04:28:30.314Z,98731.00
2023-05-09T04:29:32.410Z,98729.09
2023-05-09T04:30:34.329Z,98733.69
2023-05-09T04:31:36.261Z,98733.69
2023-05-09T04:32:38.945Z,98730.19
2023-05-09T04:33:41.213Z,98725.91
2023-05-09T04:34:43.171Z,98727.00
2023-05-09T04:35:45.026Z,98727.00
2023-05-09T04:36:46.917Z,98727.00
2023-05-09T04:37:48.985Z,98734.00
2023-05-09T04:38:51.129Z,98735.59
2023-05-09T04:39:54.289Z,98728.88
2023-05-09T04:40:56.188Z,98737.00
2023-05-09T04:41:58.090Z,98733.19
2023-05-09T04:43:00.025Z,98732.16
2023-05-09T04:44:02.025Z,98731.88
2023-05-09T04:45:04.866Z,98731.06
2023-05-09T04:46:07.790Z,98734.28
2023-05-09T04:47:09.688Z,98730.78
2023-05-09T04:48:11.907Z,98732.97
2023-05-09T04:49:13.847Z,98729.47
2023-05-09T04:50:16.686Z,98734.06
2023-05-09T04:51:19.291Z,98732.16
2023-05-09T04:52:21.756Z,98734.06
2023-05-09T04:53:23.598Z,98722.44
2023-05-09T04:54:26.141Z,98729.72
2023-05-09T04:55:28.091Z,98732.97
2023-05-09T04:56:30.149Z,98722.97
2023-05-09T04:57:32.098Z,98728.66
2023-05-09T04:58:38.200Z,98726.78
2023-05-09T04:59:40.134Z,98730.81
2023-05-09T05:00:42.171Z,98731.91
2023-05-09T05:01:44.335Z,98727.03
2023-05-09T05:02:46.711Z,98734.31
2023-05-09T05:03:48.561Z,98730.81
2023-05-09T05:04:50.572Z,98731.13
2023-05-09T05:05:52.561Z,98733.81
2023-05-09T05:06:54.985Z,98724.09
2023-05-09T05:07:56.948Z,98736.50
2023-05-09T05:08:58.777Z,98729.22
2023-05-09T05:10:00.736Z,98731.13
2023-05-09T05:11:02.624Z,98736.00
2023-05-09T05:13:09.252Z,98726.00
2023-05-09T05:14:11.288Z,98717.91
2023-05-09T05:15:13.671Z,98723.31
2023-05-09T05:16:15.751Z,98724.69
2023-05-09T05:17:18.435Z,98722.78
2023-05-09T05:18:20.365Z,98726.00
2023-05-09T05:19:22.236Z,98721.69
2023-05-09T05:20:24.099Z,98720.09
2023-05-09T05:21:25.934Z,98717.41
2023-05-09T05:22:28.015Z,98719.28
2023-05-09T05:23:30.068Z,98717.97
2023-05-09T05:24:31.945Z,98719.28
2023-05-09T05:25:33.957Z,98722.78
2023-05-09T05:26:35.901Z,98714.69
2023-05-09T05:27:37.802Z,98719.28
2023-05-09T05:28:39.712Z,98723.59
2023-05-09T05:29:41.666Z,98713.88
2023-05-09T05:30:43.645Z,98717.97
2023-05-09T05:31:45.552Z,98712.28
2023-05-09T05:32:47.863Z,98716.88
2023-05-09T05:33:49.825Z,98713.09
2023-05-09T05:34:51.966Z,98720.09
2023-05-09T05:35:53.986Z,98713.88
2023-05-09T05:36:55.931Z,98712.28
2023-05-09T05:37:57.987Z,98714.19
2023-05-09T05:38:59.890Z,98710.97
2023-05-09T05:40:01.817Z,98712.56
2023-05-09T05:41:03.733Z,98717.97
2023-05-09T05:42:05.718Z,98710.69
2023-05-09T05:43:07.595Z,98712.84
2023-05-09T05:44:09.497Z,98712.28
2023-05-09T05:45:11.704Z,98706.38
2023-05-09T05:46:13.570Z,98710.97
2023-05-09T05:47:15.458Z,98711.47
2023-05-09T05:48:17.676Z,98706.38
2023-05-09T05:49:19.630Z,98706.09
2023-05-09T05:50:21.471Z,98701.47
2023-05-09T05:51:23.332Z,98705.00
2023-05-09T05:52:26.357Z,98701.47
2023-05-09T05:53:29.832Z,98699.34
2023-05-09T05:54:32.680Z,98696.63
2023-05-09T05:55:34.535Z,98699.34
2023-05-09T05:56:36.507Z,98695.56
2023-05-09T05:57:39.134Z,98700.16
2023-05-09T05:58:41.156Z,98691.25
2023-05-09T05:59:43.023Z,98696.38
2023-05-09T06:00:44.931Z,98692.88
2023-05-09T06:01:46.845Z,98694.47
2023-05-09T06:02:48.999Z,98687.75
2023-05-09T06:03:54.999Z,98689.38
2023-05-09T06:04:56.909Z,98692.88
2023-05-09T06:05:59.167Z,98696.88
2023-05-09T06:07:01.086Z,98692.06
2023-05-09T06:08:03.138Z,98690.44
2023-05-09T06:09:05.120Z,98692.88
2023-05-09T06:10:08.452Z,98695.84
2023-05-09T06:11:10.480Z,98687.75
2023-05-09T06:12:16.608Z,98689.63
2023-05-09T06:13:18.598Z,98686.94
2023-05-09T06:14:20.626Z,98697.47
2023-05-09T06:15:22.834Z,98695.84
2023-05-09T06:16:24.790Z,98693.13
2023-05-09T06:17:27.142Z,98696.13
2023-05-09T06:18:29.526Z,98693.44
2023-05-09T06:19:31.463Z,98691.81
2023-05-09T06:20:33.422Z,98690.72
2023-05-09T06:21:35.197Z,98689.94
2023-05-09T06:22:37.241Z,98688.84
2023-05-09T06:23:44.667Z,98694.78
2023-05-09T06:24:52.687Z,98686.94
2023-05-09T06:25:54.572Z,98690.44
2023-05-09T06:26:56.536Z,98680.44
2023-05-09T06:27:58.425Z,98686.13
2023-05-09T06:29:00.303Z,98683.44
2023-05-09T06:30:08.341Z,98682.63
2023-05-09T06:31:16.904Z,98682.34
2023-05-09T06:32:19.463Z,98681.28
2023-05-09T06:33:21.416Z,98679.63
2023-05-09T06:34:23.303Z,98682.34
2023-05-09T06:35:25.310Z,98673.97
2023-05-09T06:36:27.314Z,98676.94
2023-05-09T06:37:34.243Z,98666.13
2023-05-09T06:38:36.293Z,98673.44
2023-05-09T06:39:38.204Z,98668.84
2023-05-09T06:40:40.030Z,98674.50
2023-05-09T06:41:42.064Z,98671.78
2023-05-09T06:42:44.635Z,98666.38
2023-05-09T06:43:46.646Z,98671.50
2023-05-09T06:44:48.625Z,98663.97
2023-05-09T06:45:50.764Z,98661.00
2023-05-09T06:46:52.776Z,98659.09
2023-05-09T06:47:54.763Z,98666.09
2023-05-09T06:48:56.662Z,98661.78
2023-05-09T06:49:58.532Z,98663.41
2023-05-09T06:51:00.640Z,98669.31
2023-05-09T06:52:02.559Z,98663.41
2023-05-09T06:53:04.399Z,98670.91
2023-05-09T06:54:06.306Z,98663.91
2023-05-09T06:55:09.441Z,98663.09
2023-05-09T06:56:12.036Z,98663.09
2023-05-09T06:57:13.862Z,98660.91
2023-05-09T06:58:15.839Z,98668.72
2023-05-09T06:59:18.098Z,98654.72
2023-05-09T07:00:20.610Z,98660.91
2023-05-09T07:01:22.739Z,98656.31
2023-05-09T07:02:24.683Z,98659.53
2023-05-09T07:03:26.862Z,98664.13
2023-05-09T07:04:28.734Z,98653.06
2023-05-09T07:05:30.670Z,98657.63
2023-05-09T07:06:33.031Z,98660.34
2023-05-09T07:07:34.874Z,98662.78
2023-05-09T07:08:36.759Z,98658.97
2023-05-09T07:09:38.662Z,98663.28
2023-05-09T07:10:40.700Z,98650.56
2023-05-09T07:11:42.608Z,98655.47
2023-05-09T07:12:44.441Z,98656.78
2023-05-09T07:13:46.384Z,98662.19
2023-05-09T07:14:48.291Z,98648.69
2023-05-09T07:15:50.453Z,98648.69
2023-05-09T07:16:52.521Z,98650.00
2023-05-09T07:17:54.601Z,98650.00
2023-05-09T07:18:56.604Z,98649.19
2023-05-09T07:19:58.440Z,98645.41
2023-05-09T07:21:00.445Z,98647.00
2023-05-09T07:22:02.312Z,98647.28
2023-05-09T07:23:06.154Z,98647.81
2023-05-09T07:24:08.120Z,98648.34
2023-05-09T07:25:10.409Z,98649.69
2023-05-09T07:26:12.272Z,98639.41
2023-05-09T07:27:14.305Z,98642.94
2023-05-09T07:28:16.265Z,98639.13
2023-05-09T07:29:20.201Z,98638.84
2023-05-09T07:30:22.594Z,98636.94
2023-05-09T07:31:24.603Z,98624.25
2023-05-09T07:32:28.851Z,98625.34
2023-05-09T07:33:31.101Z,98625.03
2023-05-09T07:34:33.008Z,98625.03
2023-05-09T07:35:34.938Z,98624.75
2023-05-09T07:37:40.688Z,98622.84
2023-05-09T07:38:42.553Z,98622.06
2023-05-09T07:39:44.573Z,98619.84
2023-05-09T07:40:46.748Z,98610.97
2023-05-09T07:41:48.934Z,98610.66
2023-05-09T07:42:51.638Z,98607.16
2023-05-09T07:43:53.472Z,98612.25
2023-05-09T07:44:55.434Z,98605.25
2023-05-09T07:45:57.654Z,98604.16
2023-05-09T07:47:01.186Z,98606.84
2023-05-09T07:48:03.236Z,98614.41
2023-05-09T07:49:05.156Z,98604.69
2023-05-09T07:50:07.861Z,98604.97
2023-05-09T07:51:09.728Z,98602.78
2023-05-09T07:52:11.918Z,98596.59
2023-05-09T07:53:13.841Z,98599.50
2023-05-09T07:54:15.719Z,98598.69
2023-05-09T07:55:17.998Z,98600.31
2023-05-09T07:56:20.087Z,98585.69
2023-05-09T07:57:22.803Z,98590.81
2023-05-09T07:58:24.632Z,98584.91
2023-05-09T07:59:26.647Z,98584.09
2023-05-09T08:00:28.496Z,98585.41
2023-05-09T08:01:30.686Z,98577.31
2023-05-09T08:02:33.033Z,98573.78
2023-05-09T08:03:35.175Z,98576.19
2023-05-09T08:04:39.088Z,98574.59
2023-05-09T08:05:41.179Z,98573.19
2023-05-09T08:06:43.135Z,98575.09
2023-05-09T08:07:45.355Z,98573.19
2023-05-09T08:08:47.606Z,98571.53
2023-05-09T08:09:49.692Z,98576.16
2023-05-09T08:10:51.675Z,98575.34
2023-05-09T08:11:53.839Z,98577.75
2023-05-09T08:12:55.751Z,98574.25
2023-05-09T08:13:57.673Z,98566.13
2023-05-09T08:14:59.810Z,98570.75
2023-05-09T08:16:02.228Z,98566.13
2023-05-09T08:17:04.059Z,98565.03
2023-05-09T08:18:06.427Z,98573.94
2023-05-09T08:19:08.375Z,98570.19
2023-05-09T08:20:11.474Z,98564.47
2023-05-09T08:21:13.505Z,98559.06
2023-05-09T08:22:19.686Z,98565.78
2023-05-09T08:23:21.692Z,98562.28
2023-05-09T08:24:23.664Z,98563.06
2023-05-09T08:25:25.715Z,98562.81
2023-05-09T08:26:27.906Z,98559.00
2023-05-09T08:27:29.804Z,98548.19
2023-05-09T08:28:31.754Z,98557.41
2023-05-09T08:29:33.565Z,98553.59
2023-05-09T08:30:35.824Z,98554.59
2023-05-09T08:31:37.922Z,98550.31
2023-05-09T08:32:40.105Z,98549.81
2023-05-09T08:33:42.171Z,98553.81
2023-05-09T08:34:44.044Z,98549.50
2023-05-09T08:35:50.744Z,98549.72
2023-05-09T08:36:53.293Z,98547.59
2023-05-09T08:37:55.195Z,98545.41
2023-05-09T08:38:57.068Z,98545.41
2023-05-09T08:39:58.964Z,98540.00
2023-05-09T08:41:01.929Z,98533.19
2023-05-09T08:42:04.138Z,98541.31
2023-05-09T08:43:08.578Z,98522.38
2023-05-09T08:44:11.050Z,98532.41
2023-05-09T08:45:15.126Z,98530.50
2023-05-09T08:46:21.998Z,98524.59
2023-05-09T08:47:25.728Z,98529.69
2023-05-09T08:48:29.166Z,98519.97
2023-05-09T08:49:31.305Z,98520.78
2023-05-09T08:50:35.537Z,98525.38
2023-05-09T08:51:39.788Z,98517.28
2023-05-09T08:52:42.570Z,98517.59
2023-05-09T08:53:44.823Z,98513.47
2023-05-09T08:54:47.214Z,98518.88
2023-05-09T08:55:53.304Z,98517.50
2023-05-09T08:56:55.529Z,98509.69
2023-05-09T08:57:58.902Z,98516.97
2023-05-09T08:59:01.084Z,98513.47
2023-05-09T09:00:06.493Z,98520.47
2023-05-09T09:01:09.998Z,98518.31
2023-05-09T09:02:14.906Z,98515.63
2023-05-09T09:03:18.399Z,98521.00
2023-05-09T09:04:20.548Z,98514.00
2023-05-09T09:05:39.410Z,98514.81
2023-05-09T09:06:43.780Z,98514.81
2023-05-09T09:07:46.755Z,98519.41
2023-05-09T09:08:50.467Z,98514.00
2023-05-09T09:09:54.844Z,98520.22
2023-05-09T09:10:56.900Z,98516.41
2023-05-09T09:11:59.316Z,98516.13
2023-05-09T09:13:04.946Z,98519.91
2023-05-09T09:14:22.880Z,98512.81
2023-05-09T09:15:30.429Z,98512.31
2023-05-09T09:16:35.756Z,98509.59
2023-05-09T09:17:42.980Z,98506.31
2023-05-09T09:18:46.530Z,98511.50
2023-05-09T09:19:53.973Z,98507.09
2023-05-09T09:21:11.754Z,98505.69
2023-05-09T09:22:18.367Z,98506.00
2023-05-09T09:23:25.911Z,98505.69
2023-05-09T09:24:28.636Z,98503.59
2023-05-09T09:25:30.610Z,98499.78
2023-05-09T09:26:32.443Z,98493.00
2023-05-09T09:27:35.604Z,98496.78
2023-05-09T09:28:37.915Z,98495.69
2023-05-09T09:29:39.892Z,98491.13
2023-05-09T09:30:48.501Z,98487.00
2023-05-09T09:31:57.153Z,98487.00
2023-05-09T09:33:00.447Z,98484.81
2023-05-09T09:34:03.511Z,98485.91
2023-05-09T09:35:11.092Z,98484.81
2023-05-09T09:36:13.796Z,98482.91
2023-05-09T09:37:23.324Z,98488.81
2023-05-09T09:38:26.746Z,98474.78
2023-05-09T09:39:28.541Z,98476.41
2023-05-09T09:40:30.413Z,98474.19
2023-05-09T09:41:39.817Z,98470.38
2023-05-09T09:42:46.823Z,98469.28
2023-05-09T09:43:48.645Z,98459.56
2023-05-09T09:45:02.535Z,98454.69
2023-05-09T09:46:06.522Z,98458.19
2023-05-09T09:47:11.197Z,98456.28
2023-05-09T09:48:13.165Z,98460.09
2023-05-09T09:49:18.242Z,98450.88
2023-05-09T09:50:23.497Z,98447.06
2023-05-09T09:51:29.101Z,98445.19
2023-05-09T09:52:30.935Z,98449.47
2023-05-09T09:53:43.279Z,98448.88
2023-05-09T09:54:45.336Z,98453.47
2023-05-09T09:55:52.194Z,98443.16
2023-05-09T09:56:55.270Z,98446.16
2023-05-09T09:57:57.303Z,98436.97
2023-05-09T09:59:15.625Z,98442.59
2023-05-09T10:00:24.758Z,98440.97
2023-05-09T10:01:26.851Z,98433.69
2023-05-09T10:02:29.107Z,98439.88
2023-05-09T10:03:41.532Z,98441.66
2023-05-09T10:04:44.394Z,98436.06
2023-05-09T10:05:46.914Z,98437.06
2023-05-09T10:07:01.033Z,98430.56
2023-05-09T10:08:05.098Z,98430.56
2023-05-09T10:09:06.994Z,98426.75
2023-05-09T10:10:09.726Z,98419.97
2023-05-09T10:11:12.007Z,98419.16
2023-05-09T10:12:18.094Z,98420.47
2023-05-09T10:13:21.471Z,98419.69
2023-05-09T10:14:26.611Z,98422.88
2023-05-09T10:15:41.414Z,98415.25
2023-05-09T10:16:56.173Z,98410.34
2023-05-09T10:18:01.684Z,98408.44
2023-05-09T10:19:05.472Z,98404.63
2023-05-09T10:20:09.988Z,98400.53
2023-05-09T10:21:15.831Z,98389.91
2023-05-09T10:22:19.599Z,98393.72
2023-05-09T10:23:24.025Z,98395.00
2023-05-09T10:24:47.038Z,98384.91
2023-05-09T10:26:09.008Z,98389.50
2023-05-09T10:27:13.717Z,98376.25
2023-05-09T10:28:21.248Z,98384.09
2023-05-09T10:29:27.480Z,98379.50
2023-05-09T10:30:40.052Z,98381.28
2023-05-09T10:31:45.055Z,98377.78
2023-05-09T10:33:08.574Z,98372.22
2023-05-09T10:34:13.081Z,98375.25
2023-05-09T10:35:18.288Z,98362.53
2023-05-09T10:36:23.755Z,98362.22
2023-05-09T10:37:26.627Z,98367.63
2023-05-09T10:38:30.735Z,98362.72
2023-05-09T10:39:33.192Z,98362.72
2023-05-09T10:40:35.648Z,98364.81
2023-05-09T10:41:39.943Z,98362.91
2023-05-09T10:42:44.125Z,98357.50
2023-05-09T10:43:46.166Z,98358.47
2023-05-09T10:44:48.260Z,98353.38
2023-05-09T10:45:51.774Z,98352.28
2023-05-09T10:46:54.543Z,98353.59
2023-05-09T10:47:58.170Z,98348.19
2023-05-09T10:49:01.522Z,98347.88
2023-05-09T10:50:04.629Z,98344.84
2023-05-09T10:51:07.987Z,98343.75
2023-05-09T10:52:09.841Z,98353.16
2023-05-09T10:53:14.132Z,98348.53
2023-05-09T10:54:33.386Z,98339.50
2023-05-09T10:55:47.560Z,98343.53
2023-05-09T10:56:49.507Z,98340.31
2023-05-09T10:57:55.180Z,98342.22
2023-05-09T10:58:57.959Z,98344.34
2023-05-09T11:00:00.524Z,98337.00
2023-05-09T11:01:05.080Z,98334.63
2023-05-09T11:02:19.069Z,98336.38
2023-05-09T11:03:21.550Z,98327.47
2023-05-09T11:04:23.451Z,98324.75
2023-05-09T11:05:25.463Z,98327.97
2023-05-09T11:06:55.117Z,98325.63
2023-05-09T11:08:33.250Z,98319.59
2023-05-09T11:09:39.055Z,98317.81
2023-05-09T11:10:44.207Z,98306.69
2023-05-09T11:11:54.505Z,98307.47
2023-05-09T11:13:01.078Z,98312.59
2023-05-09T11:14:04.160Z,98305.56
2023-05-09T11:15:08.098Z,98307.78
2023-05-09T11:16:12.088Z,98303.34
2023-05-09T11:17:23.050Z,98299.84
2023-05-09T11:18:25.304Z,98309.25
2023-05-09T11:19:47.655Z,98302.44
2023-05-09T11:20:51.395Z,98290.28
2023-05-09T11:22:12.439Z,98295.13
2023-05-09T11:23:19.024Z,98287.78
2023-05-09T11:24:23.154Z,98290.50
2023-05-09T11:25:29.762Z,98288.59
2023-05-09T11:26:32.890Z,98292.41
2023-05-09T11:27:48.024Z,98285.41
2023-05-09T11:28:54.409Z,98275.69
2023-05-09T11:29:59.184Z,98279.22
2023-05-09T11:31:12.070Z,98279.72
2023-05-09T11:32:15.884Z,98271.88
2023-05-09T11:33:28.651Z,98269.38
2023-05-09T11:34:30.665Z,98264.28
2023-05-09T11:35:36.878Z,98260.78
2023-05-09T11:36:48.081Z,98267.16
2023-05-09T11:38:09.419Z,98262.69
2023-05-09T11:39:11.867Z,98261.41
2023-05-09T11:40:17.282Z,98263.34
2023-05-09T11:41:19.630Z,98256.81
2023-05-09T11:42:24.323Z,98256.81
2023-05-09T11:43:26.614Z,98258.06
2023-05-09T11:44:30.929Z,98252.97
2023-05-09T11:45:33.922Z,98252.38
2023-05-09T11:46:36.976Z,98248.03
2023-05-09T11:47:39.559Z,98249.66
2023-05-09T11:48:44.218Z,98252.06
2023-05-09T11:49:46.110Z,98249.34
2023-05-09T11:50:49.602Z,98245.84
2023-05-09T11:51:51.545Z,98243.13
2023-05-09T11:52:55.858Z,98235.00
2023-05-09T11:53:57.731Z,98236.59
2023-05-09T11:54:59.706Z,98233.91
2023-05-09T11:56:06.292Z,98234.69
2023-05-09T11:57:08.517Z,98237.41
2023-05-09T11:58:10.597Z,98242.03
2023-05-09T11:59:14.724Z,98239.00
2023-05-09T12:00:23.468Z,98225.94
2023-05-09T12:01:25.675Z,98225.47
2023-05-09T12:02:28.535Z,98223.06
2023-05-09T12:03:30.961Z,98221.63
2023-05-09T12:04:34.294Z,98220.03
2023-05-09T12:05:39.556Z,98223.56
2023-05-09T12:06:47.432Z,98212.72
2023-05-09T12:07:50.675Z,98226.25
2023-05-09T12:08:55.868Z,98220.38
2023-05-09T12:09:57.816Z,98217.66
2023-05-09T12:11:09.525Z,98213.84
2023-05-09T12:12:14.845Z,98207.63
2023-05-09T12:13:18.006Z,98206.81
2023-05-09T12:14:34.804Z,98207.31
2023-05-09T12:15:38.042Z,98209.53
2023-05-09T12:16:46.749Z,98208.41
2023-05-09T12:18:02.496Z,98201.88
2023-05-09T12:19:05.566Z,98208.41
2023-05-09T12:20:09.441Z,98198.69
2023-05-09T12:21:12.172Z,98193.75
2023-05-09T12:22:14.231Z,98197.91
2023-05-09T12:23:17.037Z,98196.94
2023-05-09T12:24:22.130Z,98187.22
2023-05-09T12:25:23.981Z,98189.94
2023-05-09T12:26:27.061Z,98186.44
2023-05-09T12:27:29.909Z,98188.50
2023-05-09T12:28:32.297Z,98185.00
2023-05-09T12:29:34.988Z,98181.81
2023-05-09T12:30:37.289Z,98182.28
2023-05-09T12:31:39.583Z,98171.78
2023-05-09T12:32:42.776Z,98171.78
2023-05-09T12:33:44.848Z,98178.78
2023-05-09T12:34:48.500Z,98173.84